sensor_id;sensor_type;location;lat;lon;timestamp;pressure;altitude;pressure_sealevel;temperature;humidity
34034;BME280;63481;52.588;22.472;2023-02-21T00:01:06;98550.61;;;5.58;81.28
34034;BME280;63481;52.588;22.472;2023-02-21T00:02:18;98549.98;;;5.56;81.66
34034;BME280;63481;52.588;22.472;2023-02-21T00:03:32;98548.30;;;5.59;80.80
34034;BME280;63481;52.588;22.472;2023-02-21T00:04:44;98540.73;;;5.58;81.47
34034;BME280;63481;52.588;22.472;2023-02-21T00:05:56;98548.37;;;5.55;81.45
34034;BME280;63481;52.588;22.472;2023-02-21T00:07:08;98539.35;;;5.53;81.30
34034;BME280;63481;52.588;22.472;2023-02-21T00:08:21;98550.48;;;5.49;81.85
34034;BME280;63481;52.588;22.472;2023-02-21T00:09:33;98546.12;;;5.50;81.08
34034;BME280;63481;52.588;22.472;2023-02-21T00:10:45;98559.31;;;5.60;80.40
34034;BME280;63481;52.588;22.472;2023-02-21T00:11:57;98544.98;;;5.57;81.20
34034;BME280;63481;52.588;22.472;2023-02-21T00:13:10;98547.86;;;5.72;79.67
34034;BME280;63481;52.588;22.472;2023-02-21T00:14:22;98553.39;;;5.68;80.16
34034;BME280;63481;52.588;22.472;2023-02-21T00:15:34;98544.30;;;5.69;80.08
34034;BME280;63481;52.588;22.472;2023-02-21T00:16:46;98552.33;;;5.73;79.52
34034;BME280;63481;52.588;22.472;2023-02-21T00:17:59;98559.67;;;5.74;79.42
34034;BME280;63481;52.588;22.472;2023-02-21T00:19:11;98548.39;;;5.71;79.65
34034;BME280;63481;52.588;22.472;2023-02-21T00:20:23;98554.75;;;5.66;80.04
34034;BME280;63481;52.588;22.472;2023-02-21T00:21:36;98547.63;;;5.70;79.83
34034;BME280;63481;52.588;22.472;2023-02-21T00:22:48;98558.30;;;5.73;79.49
34034;BME280;63481;52.588;22.472;2023-02-21T00:24:00;98549.34;;;5.74;79.87
34034;BME280;63481;52.588;22.472;2023-02-21T00:25:12;98548.19;;;5.76;79.26
34034;BME280;63481;52.588;22.472;2023-02-21T00:26:24;98546.49;;;5.75;79.62
34034;BME280;63481;52.588;22.472;2023-02-21T00:27:37;98553.65;;;5.71;79.79
34034;BME280;63481;52.588;22.472;2023-02-21T00:28:49;98558.80;;;5.78;79.13
34034;BME280;63481;52.588;22.472;2023-02-21T00:30:01;98542.90;;;5.76;79.45
34034;BME280;63481;52.588;22.472;2023-02-21T00:31:17;98550.22;;;5.81;78.96
34034;BME280;63481;52.588;22.472;2023-02-21T00:32:30;98538.75;;;5.88;78.89
34034;BME280;63481;52.588;22.472;2023-02-21T00:33:42;98532.73;;;5.84;78.80
34034;BME280;63481;52.588;22.472;2023-02-21T00:34:54;98546.73;;;5.81;79.23
34034;BME280;63481;52.588;22.472;2023-02-21T00:36:06;98542.22;;;5.83;79.05
34034;BME280;63481;52.588;22.472;2023-02-21T00:37:18;98551.23;;;5.84;78.62
34034;BME280;63481;52.588;22.472;2023-02-21T00:38:30;98533.66;;;5.89;78.28
34034;BME280;63481;52.588;22.472;2023-02-21T00:39:42;98533.23;;;5.84;78.59
34034;BME280;63481;52.588;22.472;2023-02-21T00:40:55;98530.38;;;5.84;78.37
34034;BME280;63481;52.588;22.472;2023-02-21T00:42:07;98528.83;;;5.81;78.31
34034;BME280;63481;52.588;22.472;2023-02-21T00:43:19;98521.33;;;5.81;78.08
34034;BME280;63481;52.588;22.472;2023-02-21T00:44:37;98519.45;;;5.77;78.41
34034;BME280;63481;52.588;22.472;2023-02-21T00:45:50;98526.70;;;5.72;78.56
34034;BME280;63481;52.588;22.472;2023-02-21T00:47:02;98532.52;;;5.77;77.84
34034;BME280;63481;52.588;22.472;2023-02-21T00:48:23;98507.40;;;5.77;77.71
34034;BME280;63481;52.588;22.472;2023-02-21T00:49:35;98518.95;;;5.69;78.56
34034;BME280;63481;52.588;22.472;2023-02-21T00:50:47;98532.54;;;5.69;78.04
34034;BME280;63481;52.588;22.472;2023-02-21T00:51:59;98527.70;;;5.79;76.92
34034;BME280;63481;52.588;22.472;2023-02-21T00:53:11;98516.70;;;5.83;76.64
34034;BME280;63481;52.588;22.472;2023-02-21T00:54:24;98524.23;;;5.79;76.63
34034;BME280;63481;52.588;22.472;2023-02-21T00:55:36;98510.00;;;5.78;76.82
34034;BME280;63481;52.588;22.472;2023-02-21T00:56:48;98520.80;;;5.71;77.38
34034;BME280;63481;52.588;22.472;2023-02-21T00:58:00;98513.66;;;5.66;77.25
34034;BME280;63481;52.588;22.472;2023-02-21T00:59:12;98532.32;;;5.72;76.47
34034;BME280;63481;52.588;22.472;2023-02-21T01:00:25;98506.09;;;5.78;76.02
34034;BME280;63481;52.588;22.472;2023-02-21T01:01:38;98516.23;;;5.77;75.75
34034;BME280;63481;52.588;22.472;2023-02-21T01:02:50;98509.45;;;5.71;76.55
34034;BME280;63481;52.588;22.472;2023-02-21T01:04:02;98518.39;;;5.70;75.98
34034;BME280;63481;52.588;22.472;2023-02-21T01:05:14;98530.45;;;5.67;76.32
34034;BME280;63481;52.588;22.472;2023-02-21T01:06:26;98526.80;;;5.69;75.73
34034;BME280;63481;52.588;22.472;2023-02-21T01:07:38;98520.29;;;5.66;76.35
34034;BME280;63481;52.588;22.472;2023-02-21T01:08:50;98513.80;;;5.59;76.48
34034;BME280;63481;52.588;22.472;2023-02-21T01:10:03;98516.80;;;5.55;76.70
34034;BME280;63481;52.588;22.472;2023-02-21T01:11:19;98508.42;;;5.50;76.69
34034;BME280;63481;52.588;22.472;2023-02-21T01:12:31;98516.89;;;5.55;76.20
34034;BME280;63481;52.588;22.472;2023-02-21T01:13:44;98524.90;;;5.64;75.65
34034;BME280;63481;52.588;22.472;2023-02-21T01:14:58;98506.08;;;5.63;75.82
34034;BME280;63481;52.588;22.472;2023-02-21T01:16:10;98511.55;;;5.55;76.52
34034;BME280;63481;52.588;22.472;2023-02-21T01:17:22;98512.25;;;5.45;77.18
34034;BME280;63481;52.588;22.472;2023-02-21T01:18:34;98515.02;;;5.40;76.72
34034;BME280;63481;52.588;22.472;2023-02-21T01:19:46;98519.77;;;5.39;76.77
34034;BME280;63481;52.588;22.472;2023-02-21T01:20:59;98518.06;;;5.35;77.29
34034;BME280;63481;52.588;22.472;2023-02-21T01:22:11;98517.59;;;5.35;76.81
34034;BME280;63481;52.588;22.472;2023-02-21T01:23:23;98524.88;;;5.36;77.02
34034;BME280;63481;52.588;22.472;2023-02-21T01:24:36;98523.04;;;5.38;76.83
34034;BME280;63481;52.588;22.472;2023-02-21T01:25:48;98522.38;;;5.33;77.25
34034;BME280;63481;52.588;22.472;2023-02-21T01:27:00;98515.58;;;5.31;77.04
34034;BME280;63481;52.588;22.472;2023-02-21T01:28:15;98516.35;;;5.30;77.14
34034;BME280;63481;52.588;22.472;2023-02-21T01:29:29;98515.59;;;5.29;77.10
34034;BME280;63481;52.588;22.472;2023-02-21T01:30:41;98523.84;;;5.28;77.45
34034;BME280;63481;52.588;22.472;2023-02-21T01:31:53;98520.52;;;5.27;77.44
34034;BME280;63481;52.588;22.472;2023-02-21T01:33:05;98515.38;;;5.24;77.68
34034;BME280;63481;52.588;22.472;2023-02-21T01:34:18;98515.86;;;5.18;78.10
34034;BME280;63481;52.588;22.472;2023-02-21T01:35:30;98513.76;;;5.18;78.03
34034;BME280;63481;52.588;22.472;2023-02-21T01:36:42;98503.52;;;5.16;78.63
34034;BME280;63481;52.588;22.472;2023-02-21T01:37:55;98505.36;;;5.09;78.98
34034;BME280;63481;52.588;22.472;2023-02-21T01:39:06;98501.66;;;5.09;79.15
34034;BME280;63481;52.588;22.472;2023-02-21T01:40:18;98499.34;;;5.11;79.34
34034;BME280;63481;52.588;22.472;2023-02-21T01:41:29;98505.54;;;5.08;79.62
34034;BME280;63481;52.588;22.472;2023-02-21T01:42:40;98508.25;;;5.09;79.81
34034;BME280;63481;52.588;22.472;2023-02-21T01:44:05;98510.32;;;5.09;79.89
34034;BME280;63481;52.588;22.472;2023-02-21T01:46:31;98499.10;;;5.10;80.41
34034;BME280;63481;52.588;22.472;2023-02-21T01:47:42;98505.11;;;5.05;80.43
34034;BME280;63481;52.588;22.472;2023-02-21T01:48:54;98500.23;;;5.16;79.91
34034;BME280;63481;52.588;22.472;2023-02-21T01:50:12;98508.86;;;5.15;80.27
34034;BME280;63481;52.588;22.472;2023-02-21T01:51:27;98506.46;;;5.15;80.15
34034;BME280;63481;52.588;22.472;2023-02-21T01:52:41;98507.02;;;5.21;79.63
34034;BME280;63481;52.588;22.472;2023-02-21T01:53:52;98503.45;;;5.26;79.52
34034;BME280;63481;52.588;22.472;2023-02-21T01:55:06;98498.89;;;5.21;79.57
34034;BME280;63481;52.588;22.472;2023-02-21T01:56:17;98508.08;;;5.16;80.13
34034;BME280;63481;52.588;22.472;2023-02-21T01:57:29;98517.48;;;5.18;79.93
34034;BME280;63481;52.588;22.472;2023-02-21T01:58:41;98518.80;;;5.22;79.70
34034;BME280;63481;52.588;22.472;2023-02-21T01:59:56;98510.48;;;5.26;79.69
34034;BME280;63481;52.588;22.472;2023-02-21T02:01:11;98517.30;;;5.28;79.65
34034;BME280;63481;52.588;22.472;2023-02-21T02:02:41;98506.50;;;5.29;79.80
34034;BME280;63481;52.588;22.472;2023-02-21T02:03:57;98525.11;;;5.32;79.34
34034;BME280;63481;52.588;22.472;2023-02-21T02:05:10;98511.11;;;5.36;79.47
34034;BME280;63481;52.588;22.472;2023-02-21T02:06:22;98517.58;;;5.35;79.61
34034;BME280;63481;52.588;22.472;2023-02-21T02:07:33;98522.20;;;5.32;79.66
34034;BME280;63481;52.588;22.472;2023-02-21T02:08:45;98520.98;;;5.35;79.13
34034;BME280;63481;52.588;22.472;2023-02-21T02:09:57;98507.42;;;5.32;79.90
34034;BME280;63481;52.588;22.472;2023-02-21T02:16:39;98513.33;;;5.47;77.99
34034;BME280;63481;52.588;22.472;2023-02-21T02:25:14;98519.33;;;5.43;77.44
34034;BME280;63481;52.588;22.472;2023-02-21T02:26:45;98510.58;;;5.49;77.10
34034;BME280;63481;52.588;22.472;2023-02-21T02:28:09;98509.47;;;5.47;76.88
34034;BME280;63481;52.588;22.472;2023-02-21T02:30:36;98509.39;;;5.43;76.88
34034;BME280;63481;52.588;22.472;2023-02-21T02:32:29;98494.67;;;5.51;76.10
34034;BME280;63481;52.588;22.472;2023-02-21T02:35:37;98514.14;;;5.32;77.10
34034;BME280;63481;52.588;22.472;2023-02-21T02:36:41;98509.27;;;5.32;76.79
34034;BME280;63481;52.588;22.472;2023-02-21T02:40:17;98501.92;;;5.29;77.02
34034;BME280;63481;52.588;22.472;2023-02-21T02:43:45;98492.69;;;5.25;77.21
34034;BME280;63481;52.588;22.472;2023-02-21T02:44:49;98496.20;;;5.24;77.34
34034;BME280;63481;52.588;22.472;2023-02-21T02:45:47;98506.27;;;5.26;76.96
34034;BME280;63481;52.588;22.472;2023-02-21T02:46:46;98496.52;;;5.23;77.60
34034;BME280;63481;52.588;22.472;2023-02-21T02:47:42;98504.04;;;5.23;77.22
34034;BME280;63481;52.588;22.472;2023-02-21T02:48:44;98524.92;;;5.30;76.47
34034;BME280;63481;52.588;22.472;2023-02-21T02:49:40;98500.30;;;5.38;76.33
34034;BME280;63481;52.588;22.472;2023-02-21T02:50:35;98524.37;;;5.40;76.29
34034;BME280;63481;52.588;22.472;2023-02-21T02:51:32;98516.58;;;5.41;76.41
34034;BME280;63481;52.588;22.472;2023-02-21T02:52:26;98499.89;;;5.44;76.06
34034;BME280;63481;52.588;22.472;2023-02-21T02:53:23;98507.02;;;5.42;76.47
34034;BME280;63481;52.588;22.472;2023-02-21T02:54:17;98494.59;;;5.40;76.31
34034;BME280;63481;52.588;22.472;2023-02-21T02:56:20;98510.95;;;5.39;76.35
34034;BME280;63481;52.588;22.472;2023-02-21T02:57:15;98493.67;;;5.37;76.66
34034;BME280;63481;52.588;22.472;2023-02-21T02:58:10;98505.41;;;5.41;75.70
34034;BME280;63481;52.588;22.472;2023-02-21T02:59:09;98498.55;;;5.39;76.35
34034;BME280;63481;52.588;22.472;2023-02-21T03:00:04;98509.19;;;5.40;75.88
34034;BME280;63481;52.588;22.472;2023-02-21T03:05:20;98499.77;;;5.43;75.08
34034;BME280;63481;52.588;22.472;2023-02-21T03:06:26;98497.50;;;5.43;75.70
34034;BME280;63481;52.588;22.472;2023-02-21T03:07:52;98503.28;;;5.37;75.70
34034;BME280;63481;52.588;22.472;2023-02-21T03:09:17;98496.73;;;5.36;75.72
34034;BME280;63481;52.588;22.472;2023-02-21T03:11:26;98491.45;;;5.36;75.76
34034;BME280;63481;52.588;22.472;2023-02-21T03:12:32;98492.89;;;5.35;75.89
34034;BME280;63481;52.588;22.472;2023-02-21T03:14:25;98492.02;;;5.26;76.20
34034;BME280;63481;52.588;22.472;2023-02-21T03:15:26;98500.30;;;5.22;76.37
34034;BME280;63481;52.588;22.472;2023-02-21T03:17:43;98516.05;;;5.26;76.07
34034;BME280;63481;52.588;22.472;2023-02-21T03:18:39;98503.63;;;5.28;75.77
34034;BME280;63481;52.588;22.472;2023-02-21T03:19:39;98495.08;;;5.32;75.82
34034;BME280;63481;52.588;22.472;2023-02-21T03:20:34;98502.52;;;5.32;76.33
34034;BME280;63481;52.588;22.472;2023-02-21T03:21:31;98496.61;;;5.27;76.61
34034;BME280;63481;52.588;22.472;2023-02-21T03:22:27;98501.00;;;5.27;76.03
34034;BME280;63481;52.588;22.472;2023-02-21T03:23:25;98498.58;;;5.26;76.72
34034;BME280;63481;52.588;22.472;2023-02-21T03:24:22;98496.49;;;5.21;77.38
34034;BME280;63481;52.588;22.472;2023-02-21T03:25:18;98495.57;;;5.20;76.78
34034;BME280;63481;52.588;22.472;2023-02-21T03:26:13;98498.08;;;5.21;76.85
34034;BME280;63481;52.588;22.472;2023-02-21T03:27:10;98489.38;;;5.21;76.90
34034;BME280;63481;52.588;22.472;2023-02-21T03:28:15;98510.54;;;5.22;76.72
34034;BME280;63481;52.588;22.472;2023-02-21T03:29:10;98513.39;;;5.28;76.57
34034;BME280;63481;52.588;22.472;2023-02-21T03:30:05;98498.55;;;5.28;76.81
34034;BME280;63481;52.588;22.472;2023-02-21T03:31:02;98512.83;;;5.22;77.08
34034;BME280;63481;52.588;22.472;2023-02-21T03:33:27;98513.06;;;5.24;76.83
34034;BME280;63481;52.588;22.472;2023-02-21T03:34:20;98531.39;;;5.25;76.47
34034;BME280;63481;52.588;22.472;2023-02-21T03:35:13;98505.50;;;5.29;76.52
34034;BME280;63481;52.588;22.472;2023-02-21T03:36:08;98501.99;;;5.25;76.70
34034;BME280;63481;52.588;22.472;2023-02-21T03:37:04;98515.83;;;5.25;76.76
34034;BME280;63481;52.588;22.472;2023-02-21T03:37:57;98508.96;;;5.22;77.10
34034;BME280;63481;52.588;22.472;2023-02-21T03:38:51;98506.85;;;5.23;76.45
34034;BME280;63481;52.588;22.472;2023-02-21T03:39:44;98507.70;;;5.22;76.80
34034;BME280;63481;52.588;22.472;2023-02-21T03:40:37;98512.25;;;5.22;76.82
34034;BME280;63481;52.588;22.472;2023-02-21T03:41:30;98524.06;;;5.25;76.68
34034;BME280;63481;52.588;22.472;2023-02-21T03:42:24;98498.64;;;5.22;77.23
34034;BME280;63481;52.588;22.472;2023-02-21T03:43:17;98502.94;;;5.19;77.04
34034;BME280;63481;52.588;22.472;2023-02-21T03:44:15;98501.47;;;5.14;77.54
34034;BME280;63481;52.588;22.472;2023-02-21T03:45:10;98508.88;;;5.12;77.50
34034;BME280;63481;52.588;22.472;2023-02-21T03:46:04;98504.59;;;5.13;77.42
34034;BME280;63481;52.588;22.472;2023-02-21T03:46:58;98507.80;;;5.14;77.43
34034;BME280;63481;52.588;22.472;2023-02-21T03:47:51;98501.40;;;5.18;77.29
34034;BME280;63481;52.588;22.472;2023-02-21T03:48:45;98517.45;;;5.18;77.28
34034;BME280;63481;52.588;22.472;2023-02-21T03:49:47;98524.55;;;5.22;77.14
34034;BME280;63481;52.588;22.472;2023-02-21T03:50:41;98511.57;;;5.24;77.13
34034;BME280;63481;52.588;22.472;2023-02-21T03:51:34;98505.95;;;5.22;77.05
34034;BME280;63481;52.588;22.472;2023-02-21T03:52:27;98496.77;;;5.22;77.50
34034;BME280;63481;52.588;22.472;2023-02-21T03:53:21;98498.52;;;5.18;77.72
34034;BME280;63481;52.588;22.472;2023-02-21T03:54:14;98493.91;;;5.13;77.86
34034;BME280;63481;52.588;22.472;2023-02-21T03:55:10;98505.80;;;5.17;77.49
34034;BME280;63481;52.588;22.472;2023-02-21T03:56:04;98509.44;;;5.18;77.67
34034;BME280;63481;52.588;22.472;2023-02-21T03:57:21;98497.74;;;5.18;77.89
34034;BME280;63481;52.588;22.472;2023-02-21T03:58:15;98503.59;;;5.18;78.19
34034;BME280;63481;52.588;22.472;2023-02-21T03:59:09;98495.63;;;5.13;78.52
34034;BME280;63481;52.588;22.472;2023-02-21T04:00:03;98497.90;;;5.07;78.72
34034;BME280;63481;52.588;22.472;2023-02-21T04:00:56;98504.98;;;5.01;79.30
34034;BME280;63481;52.588;22.472;2023-02-21T04:01:50;98504.70;;;4.99;79.53
34034;BME280;63481;52.588;22.472;2023-02-21T04:02:44;98498.57;;;4.97;79.50
34034;BME280;63481;52.588;22.472;2023-02-21T04:03:48;98499.86;;;4.92;80.00
34034;BME280;63481;52.588;22.472;2023-02-21T04:04:41;98517.52;;;4.88;80.18
34034;BME280;63481;52.588;22.472;2023-02-21T04:05:38;98502.51;;;4.84;80.48
34034;BME280;63481;52.588;22.472;2023-02-21T04:06:32;98507.98;;;4.75;81.66
34034;BME280;63481;52.588;22.472;2023-02-21T04:07:26;98509.44;;;4.66;82.38
34034;BME280;63481;52.588;22.472;2023-02-21T04:08:19;98501.77;;;4.55;83.04
34034;BME280;63481;52.588;22.472;2023-02-21T04:09:12;98502.39;;;4.46;83.97
34034;BME280;63481;52.588;22.472;2023-02-21T04:10:06;98507.50;;;4.37;84.57
34034;BME280;63481;52.588;22.472;2023-02-21T04:11:06;98499.19;;;4.32;85.14
34034;BME280;63481;52.588;22.472;2023-02-21T04:12:02;98503.14;;;4.31;85.88
34034;BME280;63481;52.588;22.472;2023-02-21T04:12:57;98495.25;;;4.23;86.66
34034;BME280;63481;52.588;22.472;2023-02-21T04:13:50;98497.15;;;4.12;87.60
34034;BME280;63481;52.588;22.472;2023-02-21T04:14:44;98500.02;;;4.04;88.44
34034;BME280;63481;52.588;22.472;2023-02-21T04:15:38;98495.01;;;3.96;89.17
34034;BME280;63481;52.588;22.472;2023-02-21T04:16:31;98495.79;;;3.92;89.88
34034;BME280;63481;52.588;22.472;2023-02-21T04:17:24;98503.94;;;3.94;89.95
34034;BME280;63481;52.588;22.472;2023-02-21T04:18:17;98504.73;;;3.98;89.59
34034;BME280;63481;52.588;22.472;2023-02-21T04:19:13;98519.48;;;3.91;90.57
34034;BME280;63481;52.588;22.472;2023-02-21T04:20:07;98519.50;;;3.87;91.25
34034;BME280;63481;52.588;22.472;2023-02-21T04:21:04;98526.24;;;3.80;91.53
34034;BME280;63481;52.588;22.472;2023-02-21T04:21:58;98527.53;;;3.75;91.53
34034;BME280;63481;52.588;22.472;2023-02-21T04:22:51;98519.64;;;3.69;91.93
34034;BME280;63481;52.588;22.472;2023-02-21T04:23:45;98534.45;;;3.63;92.84
34034;BME280;63481;52.588;22.472;2023-02-21T04:24:39;98533.84;;;3.68;92.24
34034;BME280;63481;52.588;22.472;2023-02-21T04:25:33;98533.02;;;3.60;92.61
34034;BME280;63481;52.588;22.472;2023-02-21T04:26:30;98521.92;;;3.58;92.75
34034;BME280;63481;52.588;22.472;2023-02-21T04:27:24;98517.70;;;3.54;93.16
34034;BME280;63481;52.588;22.472;2023-02-21T04:28:22;98510.24;;;3.51;93.60
34034;BME280;63481;52.588;22.472;2023-02-21T04:29:15;98537.94;;;3.53;93.75
34034;BME280;63481;52.588;22.472;2023-02-21T04:30:09;98520.98;;;3.63;92.01
34034;BME280;63481;52.588;22.472;2023-02-21T04:31:03;98519.35;;;3.70;90.90
34034;BME280;63481;52.588;22.472;2023-02-21T04:31:56;98519.11;;;3.69;91.14
34034;BME280;63481;52.588;22.472;2023-02-21T04:32:50;98515.39;;;3.72;90.52
34034;BME280;63481;52.588;22.472;2023-02-21T04:33:44;98514.33;;;3.75;90.21
34034;BME280;63481;52.588;22.472;2023-02-21T04:34:40;98505.20;;;3.74;90.06
34034;BME280;63481;52.588;22.472;2023-02-21T04:35:33;98515.21;;;3.77;89.47
34034;BME280;63481;52.588;22.472;2023-02-21T04:36:31;98524.88;;;3.77;89.25
34034;BME280;63481;52.588;22.472;2023-02-21T04:37:25;98524.25;;;3.79;88.95
34034;BME280;63481;52.588;22.472;2023-02-21T04:38:19;98520.00;;;3.78;89.21
34034;BME280;63481;52.588;22.472;2023-02-21T04:39:12;98528.86;;;3.81;88.63
34034;BME280;63481;52.588;22.472;2023-02-21T04:40:06;98513.20;;;3.90;87.52
34034;BME280;63481;52.588;22.472;2023-02-21T04:41:01;98510.08;;;3.89;87.65
34034;BME280;63481;52.588;22.472;2023-02-21T04:41:55;98507.48;;;3.86;88.44
34034;BME280;63481;52.588;22.472;2023-02-21T04:42:48;98516.08;;;3.83;88.24
34034;BME280;63481;52.588;22.472;2023-02-21T04:43:43;98520.51;;;3.87;87.62
34034;BME280;63481;52.588;22.472;2023-02-21T04:44:37;98506.80;;;3.86;88.17
34034;BME280;63481;52.588;22.472;2023-02-21T04:45:30;98509.27;;;3.83;88.40
34034;BME280;63481;52.588;22.472;2023-02-21T04:46:24;98508.46;;;3.81;88.15
34034;BME280;63481;52.588;22.472;2023-02-21T04:47:18;98510.25;;;3.81;88.37
34034;BME280;63481;52.588;22.472;2023-02-21T04:48:11;98521.09;;;3.82;87.91
34034;BME280;63481;52.588;22.472;2023-02-21T04:49:05;98525.05;;;3.86;87.52
34034;BME280;63481;52.588;22.472;2023-02-21T04:49:58;98508.91;;;3.86;87.92
34034;BME280;63481;52.588;22.472;2023-02-21T04:50:52;98520.55;;;3.84;87.85
34034;BME280;63481;52.588;22.472;2023-02-21T04:51:45;98522.58;;;3.83;87.78
34034;BME280;63481;52.588;22.472;2023-02-21T04:52:39;98519.02;;;3.79;88.59
34034;BME280;63481;52.588;22.472;2023-02-21T04:53:33;98530.88;;;3.77;88.47
34034;BME280;63481;52.588;22.472;2023-02-21T04:54:26;98543.40;;;3.79;88.11
34034;BME280;63481;52.588;22.472;2023-02-21T04:55:19;98526.32;;;3.79;88.24
34034;BME280;63481;52.588;22.472;2023-02-21T04:56:13;98529.11;;;3.75;88.25
34034;BME280;63481;52.588;22.472;2023-02-21T04:57:07;98509.82;;;3.75;88.00
34034;BME280;63481;52.588;22.472;2023-02-21T04:58:00;98503.21;;;3.71;88.88
34034;BME280;63481;52.588;22.472;2023-02-21T04:58:54;98507.84;;;3.67;89.07
34034;BME280;63481;52.588;22.472;2023-02-21T04:59:48;98504.77;;;3.66;88.81
34034;BME280;63481;52.588;22.472;2023-02-21T05:00:47;98499.04;;;3.67;88.69
34034;BME280;63481;52.588;22.472;2023-02-21T05:01:40;98490.48;;;3.69;88.48
34034;BME280;63481;52.588;22.472;2023-02-21T05:02:34;98505.44;;;3.70;88.23
34034;BME280;63481;52.588;22.472;2023-02-21T05:03:27;98497.82;;;3.68;88.98
34034;BME280;63481;52.588;22.472;2023-02-21T05:04:20;98497.91;;;3.67;88.70
34034;BME280;63481;52.588;22.472;2023-02-21T05:05:14;98501.60;;;3.66;88.87
34034;BME280;63481;52.588;22.472;2023-02-21T05:06:07;98524.63;;;3.72;88.11
34034;BME280;63481;52.588;22.472;2023-02-21T05:07:01;98499.27;;;3.79;87.28
34034;BME280;63481;52.588;22.472;2023-02-21T05:07:54;98504.87;;;3.77;87.83
34034;BME280;63481;52.588;22.472;2023-02-21T05:08:48;98497.25;;;3.75;87.48
34034;BME280;63481;52.588;22.472;2023-02-21T05:09:42;98508.59;;;3.75;88.06
34034;BME280;63481;52.588;22.472;2023-02-21T05:10:36;98500.01;;;3.76;87.60
34034;BME280;63481;52.588;22.472;2023-02-21T05:11:32;98517.12;;;3.80;86.98
34034;BME280;63481;52.588;22.472;2023-02-21T05:12:26;98508.39;;;3.85;86.84
34034;BME280;63481;52.588;22.472;2023-02-21T05:13:20;98530.16;;;3.89;86.02
34034;BME280;63481;52.588;22.472;2023-02-21T05:14:13;98524.91;;;3.96;85.42
34034;BME280;63481;52.588;22.472;2023-02-21T05:15:10;98505.92;;;3.97;85.45
34034;BME280;63481;52.588;22.472;2023-02-21T05:16:03;98504.86;;;3.97;85.25
34034;BME280;63481;52.588;22.472;2023-02-21T05:16:56;98509.33;;;4.02;85.08
34034;BME280;63481;52.588;22.472;2023-02-21T05:17:49;98513.38;;;4.02;85.07
34034;BME280;63481;52.588;22.472;2023-02-21T05:18:45;98511.06;;;4.05;84.53
34034;BME280;63481;52.588;22.472;2023-02-21T05:19:38;98524.24;;;4.05;84.90
34034;BME280;63481;52.588;22.472;2023-02-21T05:20:31;98514.51;;;4.07;84.83
34034;BME280;63481;52.588;22.472;2023-02-21T05:21:24;98518.84;;;4.08;84.32
34034;BME280;63481;52.588;22.472;2023-02-21T05:22:17;98513.06;;;4.09;83.77
34034;BME280;63481;52.588;22.472;2023-02-21T05:23:11;98518.78;;;4.14;83.89
34034;BME280;63481;52.588;22.472;2023-02-21T05:24:08;98538.65;;;4.20;83.05
34034;BME280;63481;52.588;22.472;2023-02-21T05:25:01;98520.00;;;4.27;82.61
34034;BME280;63481;52.588;22.472;2023-02-21T05:25:54;98533.98;;;4.30;82.52
34034;BME280;63481;52.588;22.472;2023-02-21T05:26:47;98536.55;;;4.31;82.63
34034;BME280;63481;52.588;22.472;2023-02-21T05:27:40;98529.45;;;4.30;82.16
34034;BME280;63481;52.588;22.472;2023-02-21T05:28:33;98523.11;;;4.30;82.02
34034;BME280;63481;52.588;22.472;2023-02-21T05:29:26;98534.67;;;4.31;82.10
34034;BME280;63481;52.588;22.472;2023-02-21T05:30:21;98528.95;;;4.32;82.33
34034;BME280;63481;52.588;22.472;2023-02-21T05:31:15;98527.23;;;4.33;82.08
34034;BME280;63481;52.588;22.472;2023-02-21T05:32:08;98527.97;;;4.30;82.10
34034;BME280;63481;52.588;22.472;2023-02-21T05:33:01;98520.84;;;4.28;82.54
34034;BME280;63481;52.588;22.472;2023-02-21T05:33:54;98529.56;;;4.30;81.79
34034;BME280;63481;52.588;22.472;2023-02-21T05:34:46;98523.52;;;4.35;81.72
34034;BME280;63481;52.588;22.472;2023-02-21T05:35:39;98531.58;;;4.36;81.17
34034;BME280;63481;52.588;22.472;2023-02-21T05:36:32;98526.80;;;4.41;80.89
34034;BME280;63481;52.588;22.472;2023-02-21T05:37:25;98531.25;;;4.38;81.04
34034;BME280;63481;52.588;22.472;2023-02-21T05:38:20;98538.39;;;4.40;80.72
34034;BME280;63481;52.588;22.472;2023-02-21T05:39:13;98540.27;;;4.43;80.54
34034;BME280;63481;52.588;22.472;2023-02-21T05:40:08;98530.55;;;4.47;80.61
34034;BME280;63481;52.588;22.472;2023-02-21T05:41:01;98535.08;;;4.47;80.27
34034;BME280;63481;52.588;22.472;2023-02-21T05:41:54;98530.44;;;4.47;80.39
34034;BME280;63481;52.588;22.472;2023-02-21T05:42:46;98529.89;;;4.49;79.96
34034;BME280;63481;52.588;22.472;2023-02-21T05:43:41;98551.30;;;4.50;79.98
34034;BME280;63481;52.588;22.472;2023-02-21T05:44:34;98539.00;;;4.47;80.29
34034;BME280;63481;52.588;22.472;2023-02-21T05:45:27;98544.73;;;4.48;79.93
34034;BME280;63481;52.588;22.472;2023-02-21T05:46:24;98536.45;;;4.47;80.29
34034;BME280;63481;52.588;22.472;2023-02-21T05:47:17;98545.37;;;4.47;80.01
34034;BME280;63481;52.588;22.472;2023-02-21T05:48:09;98537.52;;;4.51;79.55
34034;BME280;63481;52.588;22.472;2023-02-21T05:49:03;98525.89;;;4.51;79.63
34034;BME280;63481;52.588;22.472;2023-02-21T05:49:56;98540.74;;;4.46;80.23
34034;BME280;63481;52.588;22.472;2023-02-21T05:50:49;98546.02;;;4.45;79.52
34034;BME280;63481;52.588;22.472;2023-02-21T05:51:42;98528.21;;;4.44;79.92
34034;BME280;63481;52.588;22.472;2023-02-21T05:52:35;98527.70;;;4.41;80.15
34034;BME280;63481;52.588;22.472;2023-02-21T05:53:28;98540.16;;;4.42;79.88
34034;BME280;63481;52.588;22.472;2023-02-21T05:54:21;98535.64;;;4.45;80.12
34034;BME280;63481;52.588;22.472;2023-02-21T05:55:13;98536.81;;;4.46;79.79
34034;BME280;63481;52.588;22.472;2023-02-21T05:56:06;98562.21;;;4.52;79.33
34034;BME280;63481;52.588;22.472;2023-02-21T05:57:00;98539.19;;;4.60;78.44
34034;BME280;63481;52.588;22.472;2023-02-21T05:57:53;98527.77;;;4.62;78.96
34034;BME280;63481;52.588;22.472;2023-02-21T05:58:46;98539.51;;;4.60;79.03
34034;BME280;63481;52.588;22.472;2023-02-21T05:59:39;98547.40;;;4.59;79.10